Time;durP1;ratioP1;P1;durP2;ratioP2;P2;SDS_P1;SDS_P2;PMS_P1;PMS_P2;Temp;Humidity;BMP_temperature;BMP_pressure;BME280_temperature;BME280_humidity;BME280_pressure;Samples;Min_cycle;Max_cycle;Signal;HPM_P1;HPM_P2
2020/12/10 00:00:36;;;;;;;6.13;3.73;;;4.80;99.90;;;;;;4240304;27;21069;-39
2020/12/10 00:02:37;;;;;;;8.80;4.27;;;4.70;99.90;;;;;;4239081;27;20320;-43
2020/12/10 00:04:38;;;;;;;9.03;4.27;;;4.70;99.90;;;;;;4241880;27;20316;-45
2020/12/10 00:06:40;;;;;;;5.47;3.30;;;4.70;99.90;;;;;;4238006;27;20363;-51
2020/12/10 00:08:41;;;;;;;5.23;3.23;;;4.80;99.90;;;;;;4240205;27;20309;-42
2020/12/10 00:10:43;;;;;;;5.17;2.90;;;4.80;99.90;;;;;;4239775;27;20747;-49
2020/12/10 00:12:45;;;;;;;4.73;3.03;;;4.90;99.90;;;;;;4238852;27;20738;-44
2020/12/10 00:14:48;;;;;;;4.47;3.17;;;4.90;99.90;;;;;;4239033;27;20301;-42
2020/12/10 00:16:49;;;;;;;5.87;3.33;;;5.00;99.90;;;;;;4239181;27;20279;-44
2020/12/10 00:18:50;;;;;;;4.27;2.63;;;5.00;99.90;;;;;;4239898;27;20267;-46
2020/12/10 00:20:51;;;;;;;6.20;3.13;;;5.10;99.90;;;;;;4239371;27;20751;-47
2020/12/10 00:22:52;;;;;;;5.13;2.60;;;5.10;99.90;;;;;;4238776;27;20271;-46
2020/12/10 00:24:54;;;;;;;5.77;2.97;;;5.10;99.90;;;;;;4239270;27;20672;-47
2020/12/10 00:26:55;;;;;;;5.13;3.00;;;5.10;99.90;;;;;;4239585;27;20680;-46
2020/12/10 00:28:56;;;;;;;4.77;3.00;;;5.20;99.90;;;;;;4239642;27;20332;-48
2020/12/10 00:30:57;;;;;;;4.47;2.60;;;5.20;99.90;;;;;;4239549;27;20259;-42
2020/12/10 00:32:58;;;;;;;6.20;4.00;;;5.20;99.90;;;;;;4239371;27;20271;-44
2020/12/10 00:34:59;;;;;;;4.60;2.80;;;5.20;99.90;;;;;;4238939;27;20267;-43
2020/12/10 00:37:00;;;;;;;4.27;2.93;;;5.20;99.90;;;;;;4239012;27;20298;-44
2020/12/10 00:39:02;;;;;;;4.13;2.70;;;5.20;99.90;;;;;;4238994;27;21106;-45
2020/12/10 00:41:03;;;;;;;6.47;3.20;;;5.20;99.90;;;;;;4239381;27;21125;-46
2020/12/10 00:43:04;;;;;;;4.33;2.50;;;5.20;99.90;;;;;;4238900;27;20267;-46
2020/12/10 00:45:05;;;;;;;4.03;2.50;;;5.30;99.90;;;;;;4238443;27;20267;-47
2020/12/10 00:47:07;;;;;;;5.57;3.13;;;5.30;99.90;;;;;;4238875;27;20263;-46
2020/12/10 00:49:08;;;;;;;3.13;2.27;;;5.30;99.90;;;;;;4239796;27;20301;-43
2020/12/10 00:51:09;;;;;;;2.83;2.10;;;5.30;99.90;;;;;;4239020;27;20665;-46
2020/12/10 00:53:10;;;;;;;3.17;2.20;;;5.30;99.90;;;;;;4238579;27;20335;-47
2020/12/10 00:55:11;;;;;;;4.97;2.47;;;5.40;99.90;;;;;;4239584;27;20661;-42
2020/12/10 00:57:12;;;;;;;5.10;2.87;;;5.40;99.90;;;;;;4238843;28;20291;-45
2020/12/10 00:59:13;;;;;;;3.40;2.00;;;5.40;99.90;;;;;;4238586;28;20275;-53
2020/12/10 01:01:14;;;;;;;2.77;2.20;;;5.40;99.90;;;;;;4239253;28;20283;-43
2020/12/10 01:03:16;;;;;;;3.77;2.50;;;5.50;99.90;;;;;;4238581;28;20263;-48
2020/12/10 01:05:17;;;;;;;4.10;2.77;;;5.50;99.90;;;;;;4239225;28;20323;-45
2020/12/10 01:07:18;;;;;;;7.03;4.87;;;5.50;99.90;;;;;;4238655;28;20275;-45
2020/12/10 01:09:19;;;;;;;5.47;2.87;;;5.50;99.90;;;;;;4238762;28;20771;-49
2020/12/10 01:11:27;;;;;;;4.63;2.87;;;5.40;99.90;;;;;;4238470;28;20352;-43
2020/12/10 01:13:28;;;;;;;4.40;2.73;;;5.40;99.90;;;;;;4237581;28;20336;-49
2020/12/10 01:15:30;;;;;;;5.90;3.20;;;5.30;99.90;;;;;;4220710;28;20260;-43
2020/12/10 01:17:31;;;;;;;5.20;3.07;;;5.30;99.90;;;;;;4240605;27;20685;-41
2020/12/10 01:19:32;;;;;;;5.40;3.67;;;5.30;99.90;;;;;;4242719;27;20320;-41
2020/12/10 01:21:35;;;;;;;6.33;3.27;;;5.30;99.90;;;;;;4242047;27;20264;-45
2020/12/10 01:23:36;;;;;;;4.60;2.60;;;5.30;99.90;;;;;;4242664;27;20744;-46
2020/12/10 01:25:37;;;;;;;5.77;3.27;;;5.30;99.90;;;;;;4242559;27;20774;-49
2020/12/10 01:27:38;;;;;;;4.10;2.20;;;5.30;99.90;;;;;;4241751;27;21075;-42
2020/12/10 01:29:40;;;;;;;4.20;2.30;;;5.30;99.90;;;;;;4242123;27;20329;-48
2020/12/10 01:31:41;;;;;;;3.93;2.30;;;5.30;99.90;;;;;;4242017;27;20271;-47
2020/12/10 01:33:42;;;;;;;3.03;2.10;;;5.40;99.90;;;;;;4242234;27;20275;-50
2020/12/10 01:35:44;;;;;;;3.43;2.47;;;5.40;99.90;;;;;;4241626;27;20324;-53
2020/12/10 01:37:45;;;;;;;3.77;2.43;;;5.40;99.90;;;;;;4241897;27;20853;-51
2020/12/10 01:39:47;;;;;;;4.17;2.50;;;5.40;99.90;;;;;;4241638;27;20267;-44
2020/12/10 01:41:48;;;;;;;6.23;3.17;;;5.50;99.90;;;;;;4241850;27;20336;-41
2020/12/10 01:43:49;;;;;;;4.83;2.97;;;5.40;99.90;;;;;;4241627;27;20770;-48
2020/12/10 01:45:50;;;;;;;5.83;3.50;;;5.50;99.90;;;;;;4240932;27;20031;-45
2020/12/10 01:47:51;;;;;;;4.40;3.00;;;5.50;99.90;;;;;;4241272;27;21289;-41
2020/12/10 01:49:52;;;;;;;6.43;3.73;;;5.50;99.90;;;;;;4241636;27;20272;-44
2020/12/10 01:51:54;;;;;;;7.27;3.73;;;5.40;99.90;;;;;;4241322;27;20035;-45
2020/12/10 01:53:55;;;;;;;5.77;3.53;;;5.40;99.90;;;;;;4241535;27;20367;-44
2020/12/10 01:55:56;;;;;;;6.20;3.50;;;5.40;99.90;;;;;;4241298;27;20088;-43
2020/12/10 01:57:59;;;;;;;5.03;3.50;;;5.40;99.90;;;;;;4240815;27;20352;-56
2020/12/10 02:00:00;;;;;;;5.93;3.30;;;5.40;99.90;;;;;;4241387;27;21046;-43
2020/12/10 02:02:01;;;;;;;7.57;4.40;;;5.50;99.90;;;;;;4241448;27;20629;-48
2020/12/10 02:04:02;;;;;;;8.47;4.07;;;5.50;99.90;;;;;;4241824;27;20435;-46
2020/12/10 02:06:03;;;;;;;7.07;4.13;;;5.40;99.90;;;;;;4241378;27;20320;-43
2020/12/10 02:08:05;;;;;;;6.50;3.63;;;5.40;99.90;;;;;;4241534;27;20693;-43
2020/12/10 02:10:06;;;;;;;7.40;4.67;;;5.40;99.90;;;;;;4223160;28;20301;-45
2020/12/10 02:12:07;;;;;;;5.70;3.53;;;5.30;99.90;;;;;;4240826;27;20267;-44
2020/12/10 02:14:08;;;;;;;7.50;4.27;;;5.20;99.90;;;;;;4241597;27;20275;-53
2020/12/10 02:16:09;;;;;;;5.53;3.50;;;5.20;99.90;;;;;;4241626;27;20275;-46
2020/12/10 02:18:12;;;;;;;6.63;4.07;;;5.10;99.90;;;;;;4240468;27;20098;-40
2020/12/10 02:20:15;;;;;;;6.10;3.47;;;5.10;99.90;;;;;;4241300;27;20272;-45
2020/12/10 02:22:16;;;;;;;4.60;3.20;;;5.10;99.90;;;;;;4241248;27;20324;-42
2020/12/10 02:24:20;;;;;;;12.23;3.83;;;5.10;99.90;;;;;;4241419;27;20084;-46
2020/12/10 02:26:26;;;;;;;6.90;3.73;;;5.10;99.90;;;;;;4241562;27;20321;-42
2020/12/10 02:28:27;;;;;;;7.17;3.57;;;5.10;99.90;;;;;;4239528;27;20275;-43
2020/12/10 02:30:29;;;;;;;5.93;3.93;;;5.10;99.90;;;;;;4241429;27;20271;-40
2020/12/10 02:32:30;;;;;;;8.00;3.80;;;5.10;99.90;;;;;;4240490;27;20313;-45
2020/12/10 02:34:32;;;;;;;10.40;5.30;;;4.90;99.90;;;;;;4222664;28;20276;-49
2020/12/10 02:36:35;;;;;;;16.43;5.87;;;4.80;99.90;;;;;;4240880;27;20267;-43
2020/12/10 02:38:36;;;;;;;10.83;5.20;;;4.70;99.90;;;;;;4240583;27;21229;-50
2020/12/10 02:40:43;;;;;;;9.83;5.33;;;4.60;99.90;;;;;;4240470;27;20754;-45
2020/12/10 02:42:44;;;;;;;7.27;5.00;;;4.60;99.90;;;;;;4239957;27;20612;-45
2020/12/10 02:44:45;;;;;;;9.57;5.37;;;4.50;99.90;;;;;;4240227;27;20283;-48
2020/12/10 02:46:46;;;;;;;9.63;4.83;;;4.50;99.90;;;;;;4240302;27;20422;-46
2020/12/10 02:48:48;;;;;;;10.30;5.07;;;4.40;99.90;;;;;;4240334;27;20685;-44
2020/12/10 02:50:50;;;;;;;9.60;5.60;;;4.50;99.90;;;;;;4240362;27;20297;-45
2020/12/10 02:52:51;;;;;;;13.13;6.97;;;4.50;99.90;;;;;;4241103;27;20822;-45
2020/12/10 02:54:53;;;;;;;9.43;5.03;;;4.40;99.90;;;;;;4240419;27;20283;-42
2020/12/10 02:56:54;;;;;;;6.67;4.47;;;4.40;99.90;;;;;;4240554;27;20279;-41
2020/12/10 02:58:55;;;;;;;8.30;5.37;;;4.40;99.90;;;;;;4241023;27;20657;-45
2020/12/10 03:00:56;;;;;;;11.50;5.07;;;4.30;99.90;;;;;;4239598;27;20283;-44
2020/12/10 03:02:57;;;;;;;12.33;5.00;;;4.30;99.90;;;;;;4240611;27;20319;-50
2020/12/10 03:04:59;;;;;;;8.00;4.43;;;4.20;99.90;;;;;;4240918;27;20294;-46
2020/12/10 03:07:00;;;;;;;8.13;4.90;;;4.30;99.90;;;;;;4239931;27;20320;-45
2020/12/10 03:09:01;;;;;;;10.73;5.43;;;4.20;99.90;;;;;;4240409;27;20285;-50
2020/12/10 03:11:03;;;;;;;7.93;4.70;;;4.20;99.90;;;;;;4241008;27;20255;-41
2020/12/10 03:13:04;;;;;;;9.37;5.00;;;4.10;99.90;;;;;;4240068;27;20290;-48
2020/12/10 03:15:06;;;;;;;12.47;5.63;;;4.20;99.90;;;;;;4240022;27;20336;-41
2020/12/10 03:17:07;;;;;;;11.00;6.37;;;4.10;99.90;;;;;;4240352;27;20823;-41
2020/12/10 03:19:08;;;;;;;14.27;6.37;;;4.10;99.90;;;;;;4241119;27;20320;-41
2020/12/10 03:21:09;;;;;;;12.90;7.03;;;4.10;99.90;;;;;;4241281;27;20316;-43
2020/12/10 03:23:10;;;;;;;10.83;5.47;;;4.00;99.90;;;;;;4240380;27;20279;-40
2020/12/10 03:25:11;;;;;;;9.30;5.80;;;4.00;99.90;;;;;;4239786;27;20279;-44
2020/12/10 03:27:13;;;;;;;15.77;7.33;;;4.00;99.90;;;;;;4239655;27;20408;-45
2020/12/10 03:29:14;;;;;;;10.50;5.57;;;3.90;99.90;;;;;;4239523;27;20275;-43
2020/12/10 03:31:15;;;;;;;10.40;6.17;;;3.90;99.90;;;;;;4239609;27;20755;-47
2020/12/10 03:33:16;;;;;;;12.23;5.87;;;3.90;99.90;;;;;;4240299;27;20271;-44
2020/12/10 03:35:17;;;;;;;12.00;6.13;;;3.90;99.90;;;;;;4239023;27;20263;-45
2020/12/10 03:37:18;;;;;;;10.13;5.33;;;3.90;99.90;;;;;;4240142;27;20589;-42
2020/12/10 03:39:21;;;;;;;11.13;6.20;;;3.90;99.90;;;;;;4239767;27;20277;-42
2020/12/10 03:41:22;;;;;;;11.00;5.03;;;3.90;99.90;;;;;;4238694;27;20275;-44
2020/12/10 03:43:23;;;;;;;16.93;9.07;;;4.00;99.90;;;;;;4221105;28;20280;-43
2020/12/10 03:45:24;;;;;;;16.17;8.13;;;4.00;99.90;;;;;;4239669;27;20689;-43
2020/12/10 03:47:25;;;;;;;12.93;6.50;;;4.00;99.90;;;;;;4240164;27;20300;-41
2020/12/10 03:49:27;;;;;;;8.73;4.70;;;3.90;99.90;;;;;;4240191;27;20612;-40
2020/12/10 03:51:28;;;;;;;11.30;5.07;;;3.90;99.90;;;;;;4240664;27;20861;-45
2020/12/10 03:53:29;;;;;;;9.93;5.97;;;4.00;99.90;;;;;;4239102;27;20352;-44
2020/12/10 03:55:30;;;;;;;8.23;4.63;;;4.00;99.90;;;;;;4240123;27;20309;-49
2020/12/10 03:57:31;;;;;;;12.20;5.87;;;4.10;99.90;;;;;;4239645;27;21277;-43
2020/12/10 03:59:32;;;;;;;12.17;5.43;;;4.10;99.90;;;;;;4239117;27;20636;-45
2020/12/10 04:01:33;;;;;;;9.90;5.33;;;4.10;99.90;;;;;;4239278;27;20332;-45
2020/12/10 04:03:34;;;;;;;10.03;5.60;;;4.00;99.90;;;;;;4239955;27;20665;-43
2020/12/10 04:05:35;;;;;;;10.23;5.80;;;4.10;99.90;;;;;;4239958;27;20259;-52
2020/12/10 04:07:37;;;;;;;10.83;5.70;;;4.00;99.90;;;;;;4238980;27;20312;-48
2020/12/10 04:09:38;;;;;;;9.03;5.47;;;4.00;99.90;;;;;;4239640;27;20807;-42
2020/12/10 04:11:39;;;;;;;14.17;6.10;;;4.00;99.90;;;;;;4239862;27;20256;-45
2020/12/10 04:13:41;;;;;;;11.80;5.67;;;4.10;99.90;;;;;;4239932;27;20727;-47
2020/12/10 04:15:42;;;;;;;9.37;5.10;;;4.00;99.90;;;;;;4239868;27;20304;-44
2020/12/10 04:17:43;;;;;;;13.00;5.93;;;4.00;99.90;;;;;;4239112;27;20858;-46
2020/12/10 04:19:44;;;;;;;14.20;6.03;;;4.00;99.90;;;;;;4239375;27;20263;-46
2020/12/10 04:21:45;;;;;;;11.43;5.70;;;4.00;99.90;;;;;;4221791;28;20370;-47
2020/12/10 04:23:47;;;;;;;11.67;5.17;;;4.00;99.90;;;;;;4239267;27;20652;-44
2020/12/10 04:25:52;;;;;;;11.10;6.00;;;4.00;99.90;;;;;;4238927;27;20308;-46
2020/12/10 04:27:53;;;;;;;11.00;5.37;;;3.90;99.90;;;;;;4239784;27;20760;-43
2020/12/10 04:29:54;;;;;;;11.80;5.87;;;3.90;99.90;;;;;;4238783;27;20275;-45
2020/12/10 04:31:55;;;;;;;14.70;6.57;;;3.90;99.90;;;;;;4239398;27;20271;-48
2020/12/10 04:33:56;;;;;;;12.77;6.87;;;3.80;99.90;;;;;;4239358;27;20271;-43
2020/12/10 04:35:58;;;;;;;14.00;6.90;;;3.80;99.90;;;;;;4239103;27;20391;-46
2020/12/10 04:37:59;;;;;;;12.97;6.37;;;3.80;99.90;;;;;;4238281;27;20950;-48
2020/12/10 04:40:00;;;;;;;13.73;6.63;;;3.70;99.90;;;;;;4220397;28;20310;-39
2020/12/10 04:42:08;;;;;;;12.57;6.73;;;3.60;99.90;;;;;;4238574;27;20673;-48
2020/12/10 04:44:09;;;;;;;32.63;15.60;;;3.60;99.90;;;;;;4238975;27;20267;-44
2020/12/10 04:46:11;;;;;;;11.83;6.67;;;3.50;99.90;;;;;;4238616;27;20279;-42
2020/12/10 04:48:13;;;;;;;12.20;5.80;;;3.50;99.90;;;;;;4238415;27;20271;-41
2020/12/10 04:50:18;;;;;;;15.57;7.50;;;3.60;99.90;;;;;;4238066;27;20260;-46
2020/12/10 04:52:20;;;;;;;14.23;5.77;;;3.60;99.90;;;;;;4238253;27;20645;-49
2020/12/10 04:54:21;;;;;;;21.93;9.53;;;3.60;99.90;;;;;;4238051;27;20271;-52
2020/12/10 04:56:22;;;;;;;9.70;5.17;;;3.70;99.90;;;;;;4239150;27;20816;-47
2020/12/10 04:58:23;;;;;;;12.83;6.17;;;3.80;99.90;;;;;;4237909;28;20799;-53
2020/12/10 05:00:25;;;;;;;11.77;5.27;;;3.90;99.90;;;;;;4238427;28;20684;-50
2020/12/10 05:02:27;;;;;;;7.97;4.70;;;3.90;99.90;;;;;;4239139;28;20681;-45
2020/12/10 05:04:28;;;;;;;9.40;4.77;;;4.00;99.90;;;;;;4238214;28;20275;-44
2020/12/10 05:06:29;;;;;;;9.43;5.03;;;4.10;99.90;;;;;;4238260;28;20339;-45
2020/12/10 05:08:31;;;;;;;6.30;3.37;;;4.10;99.90;;;;;;4239190;28;21325;-48
2020/12/10 05:10:45;;;;;;;8.13;4.13;;;4.20;99.90;;;;;;4238682;28;20630;-40
2020/12/10 05:12:47;;;;;;;11.50;5.77;;;4.30;99.90;;;;;;4238944;28;20637;-47
2020/12/10 05:14:48;;;;;;;9.87;4.70;;;4.30;99.90;;;;;;4237763;28;20301;-44
2020/12/10 05:17:11;;;;;;;8.07;4.27;;;4.40;99.90;;;;;;4238484;28;20267;-46
2020/12/10 05:19:18;;;;;;;8.53;3.90;;;4.40;99.90;;;;;;4238070;28;21301;-46
2020/12/10 05:21:19;;;;;;;10.20;4.00;;;4.50;99.90;;;;;;4220500;28;20325;-43
2020/12/10 05:23:35;;;;;;;7.30;4.23;;;4.50;99.90;;;;;;4238084;28;20279;-53
2020/12/10 05:25:51;;;;;;;8.40;3.63;;;4.50;99.90;;;;;;4237971;28;20280;-44
2020/12/10 05:28:00;;;;;;;6.00;3.43;;;4.60;99.90;;;;;;4237921;28;20755;-45
2020/12/10 05:30:02;;;;;;;11.10;5.43;;;4.60;99.90;;;;;;4238743;28;20271;-49
2020/12/10 05:32:03;;;;;;;12.20;5.73;;;4.70;99.90;;;;;;4237941;28;20283;-44
2020/12/10 05:34:04;;;;;;;12.57;6.63;;;4.70;99.90;;;;;;4237986;28;20308;-40
2020/12/10 05:36:11;;;;;;;8.53;4.50;;;4.70;99.90;;;;;;4238478;28;20317;-44
2020/12/10 05:38:13;;;;;;;9.90;5.13;;;4.70;99.90;;;;;;4237635;28;20299;-50
2020/12/10 05:40:14;;;;;;;7.53;4.47;;;4.70;99.90;;;;;;4238473;28;20343;-47
2020/12/10 05:42:16;;;;;;;7.73;5.03;;;4.70;99.90;;;;;;4238594;28;20320;-47
2020/12/10 05:44:22;;;;;;;5.33;3.10;;;4.70;99.90;;;;;;4238185;28;20279;-45
2020/12/10 05:46:25;;;;;;;9.87;4.27;;;4.70;99.90;;;;;;4238121;28;20328;-40
2020/12/10 05:48:26;;;;;;;6.60;4.17;;;4.80;99.90;;;;;;4238696;28;21014;-46
2020/12/10 05:50:29;;;;;;;15.00;7.17;;;4.80;99.90;;;;;;4238426;28;20308;-46
2020/12/10 05:52:35;;;;;;;9.60;4.43;;;4.90;99.90;;;;;;4238170;28;20320;-43
2020/12/10 05:54:42;;;;;;;6.83;3.40;;;4.90;99.90;;;;;;4238002;28;20271;-44
2020/12/10 05:56:50;;;;;;;9.07;4.37;;;4.90;99.90;;;;;;4236976;28;20711;-39
2020/12/10 05:58:53;;;;;;;7.00;3.27;;;5.00;99.90;;;;;;4237706;28;20803;-47
2020/12/10 06:00:55;;;;;;;33.27;15.00;;;5.00;99.90;;;;;;4231567;28;20691;-48
2020/12/10 06:02:58;;;;;;;8.67;4.90;;;5.00;99.90;;;;;;4237331;27;20290;-51
2020/12/10 06:05:01;;;;;;;7.40;4.23;;;5.10;99.90;;;;;;4239599;27;20332;-47
2020/12/10 06:07:02;;;;;;;8.23;4.57;;;5.10;99.90;;;;;;4240338;27;20302;-46
2020/12/10 06:09:05;;;;;;;4.30;3.00;;;5.10;99.90;;;;;;4240944;27;20260;-42
2020/12/10 06:11:07;;;;;;;6.00;2.73;;;5.20;99.90;;;;;;4240451;27;20276;-45
2020/12/10 06:13:09;;;;;;;7.97;4.80;;;5.20;99.90;;;;;;4239176;27;20279;-44
2020/12/10 06:15:10;;;;;;;8.87;4.70;;;5.20;99.90;;;;;;4224807;27;20352;-39
2020/12/10 06:17:12;;;;;;;6.67;4.40;;;5.20;99.90;;;;;;4236276;27;20271;-38
2020/12/10 06:19:14;;;;;;;8.83;4.20;;;5.20;99.90;;;;;;4236362;27;20287;-39
2020/12/10 06:21:44;;;;;;;8.67;4.47;;;5.20;99.90;;;;;;4230213;27;20758;-43
2020/12/10 06:23:45;;;;;;;3.83;2.58;;;5.30;99.90;;;;;;4226367;27;20283;-37
2020/12/10 06:25:46;;;;;;;4.43;2.60;;;5.30;99.90;;;;;;4239132;27;20080;-41
2020/12/10 06:27:47;;;;;;;6.90;3.37;;;5.30;99.90;;;;;;4217909;28;20322;-40
2020/12/10 06:29:49;;;;;;;5.83;3.40;;;5.30;99.90;;;;;;4223488;27;20698;-44
2020/12/10 06:32:05;;;;;;;10.27;5.67;;;5.30;99.90;;;;;;4228489;27;20347;-48
2020/12/10 06:34:06;;;;;;;9.80;5.40;;;5.30;99.90;;;;;;4240858;27;20260;-46
2020/12/10 06:36:20;;;;;;;9.27;4.90;;;5.30;99.90;;;;;;4240218;27;20676;-51
2020/12/10 06:38:42;;;;;;;5.90;3.70;;;5.30;99.90;;;;;;4240400;27;20372;-47
2020/12/10 06:40:43;;;;;;;7.17;4.30;;;5.20;99.90;;;;;;4240706;27;20755;-43
2020/12/10 06:42:46;;;;;;;10.73;6.07;;;5.10;99.90;;;;;;4240238;27;20267;-50
2020/12/10 06:44:48;;;;;;;17.47;7.60;;;5.20;99.90;;;;;;4239069;27;20645;-46
2020/12/10 06:46:49;;;;;;;13.03;4.80;;;5.20;99.90;;;;;;4240876;27;20331;-40
2020/12/10 06:48:51;;;;;;;7.70;4.17;;;5.20;99.90;;;;;;4234562;27;20283;-54
2020/12/10 06:51:18;;;;;;;9.43;5.27;;;5.20;99.90;;;;;;4239747;27;20669;-42
2020/12/10 06:53:21;;;;;;;6.63;3.20;;;5.20;99.90;;;;;;4241371;27;20275;-51
2020/12/10 06:55:23;;;;;;;6.87;3.30;;;5.20;99.90;;;;;;4240831;27;20320;-46
2020/12/10 06:57:24;;;;;;;12.10;6.33;;;5.20;99.90;;;;;;4238842;27;20356;-44
2020/12/10 06:59:42;;;;;;;11.87;5.70;;;5.20;99.90;;;;;;4238862;27;20307;-40
2020/12/10 07:01:43;;;;;;;12.33;6.77;;;5.10;99.90;;;;;;4224091;27;20760;-55
2020/12/10 07:03:45;;;;;;;12.50;6.40;;;5.10;99.90;;;;;;4230207;27;20294;-40
2020/12/10 07:05:46;;;;;;;18.07;6.53;;;5.10;99.90;;;;;;4240804;27;20287;-39
2020/12/10 07:08:04;;;;;;;12.77;7.73;;;5.10;99.90;;;;;;4240796;27;20271;-36
2020/12/10 07:10:06;;;;;;;18.03;7.30;;;5.10;99.90;;;;;;4240962;27;20275;-51
2020/12/10 07:12:18;;;;;;;17.63;7.63;;;5.10;99.90;;;;;;4240357;27;20709;-50
2020/12/10 07:14:25;;;;;;;17.27;7.63;;;5.00;99.90;;;;;;4240153;27;20382;-43
2020/12/10 07:16:31;;;;;;;13.30;6.10;;;5.00;99.90;;;;;;4240511;27;20275;-45
2020/12/10 07:18:32;;;;;;;18.30;7.77;;;4.90;99.90;;;;;;4240030;27;20352;-44
2020/12/10 07:20:33;;;;;;;15.33;7.47;;;4.90;99.90;;;;;;4238423;27;20867;-49
2020/12/10 07:22:34;;;;;;;13.97;6.70;;;4.90;99.90;;;;;;4240194;27;20291;-37
2020/12/10 07:24:36;;;;;;;15.97;9.17;;;5.20;99.90;;;;;;4239382;27;20291;-36
2020/12/10 07:26:37;;;;;;;17.73;8.67;;;5.60;99.90;;;;;;4239143;27;20355;-45
2020/12/10 07:28:39;;;;;;;12.43;6.37;;;6.00;99.90;;;;;;4239052;27;20051;-42
2020/12/10 07:30:40;;;;;;;16.70;8.57;;;6.30;99.90;;;;;;4239250;27;20665;-52
2020/12/10 07:32:42;;;;;;;14.43;7.30;;;6.50;99.90;;;;;;4239282;27;20064;-47
2020/12/10 07:34:44;;;;;;;13.53;6.70;;;6.60;99.90;;;;;;4239046;27;20101;-45
2020/12/10 07:36:51;;;;;;;13.00;5.40;;;6.30;99.90;;;;;;4239451;27;20411;-45
2020/12/10 07:38:52;;;;;;;14.23;7.10;;;6.00;99.90;;;;;;4225501;27;20088;-49
2020/12/10 07:40:54;;;;;;;16.03;8.57;;;5.90;99.90;;;;;;4243906;27;20043;-42
2020/12/10 07:43:02;;;;;;;19.60;8.93;;;5.70;99.90;;;;;;4239590;27;20619;-46
2020/12/10 07:45:15;;;;;;;16.73;7.80;;;5.70;99.90;;;;;;4239590;27;20035;-45
2020/12/10 07:47:16;;;;;;;14.83;7.27;;;5.80;99.90;;;;;;4239871;27;20072;-46
2020/12/10 07:49:44;;;;;;;27.60;13.37;;;5.90;99.90;;;;;;4239870;27;20043;-49
2020/12/10 07:51:45;;;;;;;23.60;12.40;;;6.00;99.90;;;;;;4235505;27;20187;-46
2020/12/10 07:53:47;;;;;;;13.10;7.50;;;6.10;99.90;;;;;;4240383;27;20031;-46
2020/12/10 07:55:58;;;;;;;10.37;5.70;;;6.10;99.90;;;;;;4239685;27;20092;-47
2020/12/10 07:58:20;;;;;;;14.17;8.10;;;6.10;99.90;;;;;;4240149;27;20388;-46
2020/12/10 08:00:24;;;;;;;18.03;9.37;;;6.20;99.90;;;;;;4239285;27;20416;-39
2020/12/10 08:02:45;;;;;;;8.10;4.23;;;6.20;99.90;;;;;;4238909;27;20969;-52
2020/12/10 08:04:47;;;;;;;6.53;3.77;;;6.20;99.90;;;;;;4190563;28;20040;-52
2020/12/10 08:06:50;;;;;;;7.90;4.00;;;6.10;99.90;;;;;;4233629;27;20031;-43
2020/12/10 08:09:01;;;;;;;6.07;4.00;;;6.10;99.90;;;;;;4238434;27;20051;-51
2020/12/10 08:11:14;;;;;;;6.90;4.20;;;6.20;99.90;;;;;;4238457;27;20112;-47
2020/12/10 08:13:19;;;;;;;12.80;4.67;;;6.50;99.90;;;;;;4239095;27;20076;-43
2020/12/10 08:15:20;;;;;;;12.20;6.63;;;6.60;99.90;;;;;;4238790;27;20080;-45
2020/12/10 08:17:22;;;;;;;12.60;6.73;;;6.70;99.90;;;;;;4239061;27;20120;-56
2020/12/10 08:19:31;;;;;;;10.93;6.50;;;6.90;99.90;;;;;;4238809;27;20079;-52
2020/12/10 08:21:32;;;;;;;12.23;5.47;;;7.10;99.90;;;;;;4241760;27;20471;-48
2020/12/10 08:23:46;;;;;;;13.80;5.97;;;7.30;99.90;;;;;;4238440;27;20433;-49
2020/12/10 08:26:13;;;;;;;11.53;6.70;;;7.30;99.90;;;;;;4237969;27;20429;-58
2020/12/10 08:28:15;;;;;;;13.20;6.57;;;7.60;99.90;;;;;;4237775;27;20100;-48
2020/12/10 08:30:16;;;;;;;12.50;6.30;;;7.80;99.90;;;;;;4236531;27;20035;-47
2020/12/10 08:32:17;;;;;;;13.77;6.50;;;8.00;99.90;;;;;;4237260;27;20437;-48
2020/12/10 08:34:18;;;;;;;16.43;8.00;;;8.00;99.90;;;;;;4235884;27;20035;-57
2020/12/10 08:36:35;;;;;;;12.43;4.00;;;8.00;99.90;;;;;;4237317;27;20043;-52
2020/12/10 08:38:38;;;;;;;12.57;5.10;;;8.10;99.90;;;;;;4237560;27;20096;-57
2020/12/10 08:40:39;;;;;;;4.57;3.07;;;8.00;99.90;;;;;;4238007;27;20028;-48
2020/12/10 08:42:40;;;;;;;4.53;2.73;;;7.90;99.90;;;;;;4237898;27;20039;-56
2020/12/10 08:44:50;;;;;;;5.93;2.60;;;7.70;99.90;;;;;;4237709;27;20034;-59
2020/12/10 08:47:01;;;;;;;6.33;2.80;;;7.60;99.90;;;;;;4238408;27;20039;-50
2020/12/10 08:49:21;;;;;;;9.30;3.67;;;7.60;99.90;;;;;;4226273;28;20402;-55
2020/12/10 08:51:36;;;;;;;5.50;3.22;;;7.70;99.90;;;;;;4235451;27;20027;-55
2020/12/10 08:53:45;;;;;;;5.33;2.80;;;7.90;99.90;;;;;;4237044;27;20497;-49
2020/12/10 08:55:55;;;;;;;7.33;3.20;;;8.00;99.90;;;;;;4237937;27;20073;-55
2020/12/10 08:57:57;;;;;;;8.52;3.55;;;8.10;99.90;;;;;;4229489;28;20023;-52
2020/12/10 08:59:58;;;;;;;8.03;3.30;;;8.10;99.90;;;;;;4236512;28;20093;-53
2020/12/10 09:01:59;;;;;;;4.47;2.33;;;8.10;99.90;;;;;;4239804;27;20026;-52
2020/12/10 09:04:02;;;;;;;4.60;2.40;;;8.00;99.90;;;;;;4237106;27;20491;-49
2020/12/10 09:06:04;;;;;;;4.53;2.20;;;8.00;99.90;;;;;;4237177;28;20085;-51
2020/12/10 09:08:05;;;;;;;2.60;1.70;;;7.90;99.90;;;;;;4238505;28;20068;-54
2020/12/10 09:10:07;;;;;;;7.40;2.93;;;7.90;99.90;;;;;;4237430;28;20548;-53
2020/12/10 09:12:09;;;;;;;6.70;2.73;;;7.90;99.90;;;;;;4237244;28;20064;-54
2020/12/10 09:14:10;;;;;;;3.60;2.10;;;7.90;99.90;;;;;;4238751;27;20092;-54
2020/12/10 09:16:12;;;;;;;6.00;2.30;;;7.90;99.90;;;;;;4248382;27;20023;-57
2020/12/10 09:18:13;;;;;;;3.27;1.40;;;7.90;99.90;;;;;;4238040;28;20026;-54
2020/12/10 09:20:14;;;;;;;5.07;1.57;;;7.90;99.90;;;;;;4229505;27;20051;-42
2020/12/10 09:22:15;;;;;;;3.83;2.20;;;7.90;99.90;;;;;;4227771;28;20367;-50
2020/12/10 09:24:16;;;;;;;3.33;1.70;;;7.80;99.90;;;;;;4237246;28;20043;-49
2020/12/10 09:26:18;;;;;;;6.43;2.73;;;7.90;99.90;;;;;;4237803;28;20072;-48
2020/12/10 09:28:20;;;;;;;4.33;2.10;;;7.80;99.90;;;;;;4236459;27;20039;-41
2020/12/10 09:30:21;;;;;;;4.80;1.77;;;7.80;99.90;;;;;;4222530;28;20084;-47
2020/12/10 09:32:22;;;;;;;5.03;2.30;;;7.90;99.90;;;;;;4235809;28;20099;-46
2020/12/10 09:34:23;;;;;;;6.13;2.80;;;7.90;99.90;;;;;;4237572;28;20027;-46
2020/12/10 09:36:25;;;;;;;3.50;2.73;;;7.90;99.90;;;;;;4237953;28;20087;-42
2020/12/10 09:38:26;;;;;;;4.73;2.37;;;7.90;99.90;;;;;;4237392;27;20099;-45
2020/12/10 09:40:27;;;;;;;5.03;2.43;;;8.00;99.90;;;;;;4240202;27;20055;-42
2020/12/10 09:42:29;;;;;;;4.07;1.90;;;8.00;99.90;;;;;;4245020;27;20039;-45
2020/12/10 09:44:31;;;;;;;6.60;3.27;;;8.00;99.90;;;;;;4240966;27;20031;-43
2020/12/10 09:46:33;;;;;;;3.57;2.10;;;8.00;99.90;;;;;;4240097;27;20065;-47
2020/12/10 09:48:34;;;;;;;5.03;3.00;;;8.00;99.90;;;;;;4240145;27;20047;-40
2020/12/10 09:50:37;;;;;;;9.73;3.10;;;8.10;99.90;;;;;;4240813;27;20087;-47
2020/12/10 09:52:41;;;;;;;3.83;2.07;;;8.10;99.90;;;;;;4240646;27;20043;-43
2020/12/10 09:54:57;;;;;;;6.30;3.10;;;8.10;99.90;;;;;;4241062;27;20080;-48
2020/12/10 09:59:03;;;;;;;3.77;1.77;;;8.30;99.90;;;;;;4240378;27;20478;-51
2020/12/10 10:01:08;;;;;;;3.90;1.80;;;8.40;99.90;;;;;;4240110;27;20031;-43
2020/12/10 10:03:09;;;;;;;4.97;2.63;;;8.50;99.90;;;;;;4240898;27;20076;-43
2020/12/10 10:05:10;;;;;;;2.70;1.93;;;8.50;99.90;;;;;;4238899;27;20039;-47
2020/12/10 10:07:12;;;;;;;4.30;1.93;;;8.60;99.90;;;;;;4239839;27;20189;-52
2020/12/10 10:09:13;;;;;;;2.93;1.23;;;8.60;99.90;;;;;;4239455;27;20051;-55
2020/12/10 10:11:15;;;;;;;2.27;1.40;;;8.70;99.90;;;;;;4240561;27;20092;-49
2020/12/10 10:13:16;;;;;;;2.40;1.40;;;8.70;99.90;;;;;;4239715;27;21645;-47
2020/12/10 10:15:18;;;;;;;5.60;1.30;;;8.80;99.90;;;;;;4239911;27;20047;-58
2020/12/10 10:17:19;;;;;;;3.37;1.57;;;8.90;99.90;;;;;;4239914;27;20092;-49
2020/12/10 10:19:20;;;;;;;3.73;2.40;;;9.00;99.90;;;;;;4221933;28;20052;-47
2020/12/10 10:21:23;;;;;;;8.60;2.60;;;9.00;99.90;;;;;;4240748;27;20088;-53
2020/12/10 10:23:26;;;;;;;1.73;1.37;;;9.00;99.90;;;;;;4246243;27;20043;-50
2020/12/10 10:25:27;;;;;;;5.70;2.47;;;9.10;99.90;;;;;;4239670;27;20043;-47
2020/12/10 10:27:28;;;;;;;7.53;2.27;;;9.20;99.90;;;;;;4240284;27;20542;-42
2020/12/10 10:29:29;;;;;;;4.50;2.57;;;9.20;99.90;;;;;;4240735;27;20039;-48
2020/12/10 10:31:30;;;;;;;3.73;1.97;;;9.20;99.90;;;;;;4240128;27;20104;-46
2020/12/10 10:33:31;;;;;;;4.17;2.00;;;9.30;99.90;;;;;;4240622;27;20031;-43
2020/12/10 10:35:32;;;;;;;4.33;2.37;;;9.20;99.90;;;;;;4239947;27;20031;-50
2020/12/10 10:37:33;;;;;;;9.93;3.70;;;9.30;99.90;;;;;;4239497;27;20416;-53
2020/12/10 10:39:34;;;;;;;5.30;2.30;;;9.30;99.90;;;;;;4239564;27;20047;-49
2020/12/10 10:41:43;;;;;;;7.10;2.47;;;9.30;99.90;;;;;;4240175;27;20535;-46
2020/12/10 10:43:44;;;;;;;6.43;2.73;;;9.40;99.90;;;;;;4239776;27;20035;-42
2020/12/10 10:45:45;;;;;;;10.07;2.77;;;9.30;99.90;;;;;;4240174;27;20039;-43
2020/12/10 10:47:48;;;;;;;5.73;1.87;;;9.30;99.90;;;;;;4239987;27;20023;-44